createdAt,value
2017-12-31T00:00:35.888Z,0
2017-12-31T00:01:37.786Z,0
2017-12-31T00:02:39.681Z,0
2017-12-31T00:03:41.584Z,0
2017-12-31T00:04:43.452Z,0
2017-12-31T00:05:45.403Z,0
2017-12-31T00:06:47.310Z,0
2017-12-31T00:07:49.200Z,0
2017-12-31T00:08:51.149Z,0
2017-12-31T00:09:53.102Z,0
2017-12-31T00:10:55.003Z,0
2017-12-31T00:11:56.912Z,0
2017-12-31T00:12:58.810Z,0
2017-12-31T00:14:00.738Z,0
2017-12-31T00:15:02.634Z,0
2017-12-31T00:16:04.609Z,0
2017-12-31T00:17:06.469Z,0
2017-12-31T00:18:08.408Z,0
2017-12-31T00:19:10.277Z,0
2017-12-31T00:20:12.144Z,0
2017-12-31T00:21:14.076Z,0
2017-12-31T00:22:15.953Z,0
2017-12-31T00:23:17.880Z,0
2017-12-31T00:24:19.829Z,0
2017-12-31T00:25:21.754Z,0
2017-12-31T00:26:23.640Z,0
2017-12-31T00:27:25.617Z,0
2017-12-31T00:28:27.482Z,0
2017-12-31T00:29:29.464Z,0
2017-12-31T00:30:31.442Z,0
2017-12-31T00:31:33.280Z,0
2017-12-31T00:32:35.180Z,0
2017-12-31T00:33:37.052Z,0
2017-12-31T00:34:38.994Z,0
2017-12-31T00:35:40.932Z,0
2017-12-31T00:36:42.870Z,0
2017-12-31T00:37:44.847Z,0
2017-12-31T00:38:46.730Z,0
2017-12-31T00:39:48.678Z,0
2017-12-31T00:40:50.600Z,0
2017-12-31T00:41:52.468Z,0
2017-12-31T00:42:54.383Z,0
2017-12-31T00:43:56.279Z,0
2017-12-31T00:44:58.270Z,0
2017-12-31T00:46:00.176Z,0
2017-12-31T00:47:02.088Z,0
2017-12-31T00:48:04.013Z,0
2017-12-31T00:49:05.940Z,0
2017-12-31T00:50:07.834Z,0
2017-12-31T00:51:09.863Z,0
2017-12-31T00:52:11.744Z,0
2017-12-31T00:53:13.704Z,0
2017-12-31T00:54:15.703Z,0
2017-12-31T00:55:17.656Z,0
2017-12-31T00:56:19.606Z,0
2017-12-31T00:57:21.556Z,0
2017-12-31T00:58:23.518Z,0
2017-12-31T00:59:25.479Z,0
2017-12-31T01:00:27.425Z,0
2017-12-31T01:01:29.462Z,0
2017-12-31T01:02:31.389Z,0
2017-12-31T01:03:33.291Z,0
2017-12-31T01:04:35.257Z,0
2017-12-31T01:05:37.161Z,0
2017-12-31T01:06:39.127Z,0
2017-12-31T01:07:41.036Z,0
2017-12-31T01:08:42.996Z,0
2017-12-31T01:09:44.750Z,0
2017-12-31T01:10:46.708Z,0
2017-12-31T01:11:48.673Z,0
2017-12-31T01:12:50.642Z,0
2017-12-31T01:13:52.540Z,0
2017-12-31T01:14:54.452Z,0
2017-12-31T01:15:56.381Z,0
2017-12-31T01:16:58.275Z,0
2017-12-31T01:18:00.208Z,0
2017-12-31T01:19:02.146Z,0
2017-12-31T01:20:04.022Z,0
2017-12-31T01:21:05.968Z,0
2017-12-31T01:22:07.903Z,0
2017-12-31T01:23:09.868Z,0
2017-12-31T01:24:11.806Z,0
2017-12-31T01:25:13.660Z,0
2017-12-31T01:26:15.604Z,0
2017-12-31T01:27:17.521Z,0
2017-12-31T01:28:19.416Z,0
2017-12-31T01:29:21.307Z,0
2017-12-31T01:30:23.247Z,0
2017-12-31T01:31:25.198Z,0
2017-12-31T01:32:27.055Z,0
2017-12-31T01:33:29.147Z,0
2017-12-31T01:34:31.048Z,0
2017-12-31T01:35:32.909Z,0
2017-12-31T01:36:34.803Z,0
2017-12-31T01:37:36.711Z,0
2017-12-31T01:38:38.589Z,0
2017-12-31T01:39:40.575Z,0
2017-12-31T01:40:42.546Z,0
2017-12-31T01:41:44.460Z,0
2017-12-31T01:42:46.342Z,0
2017-12-31T01:43:48.294Z,0
2017-12-31T01:44:50.139Z,0
2017-12-31T01:45:52.047Z,0
2017-12-31T01:46:53.947Z,0
2017-12-31T01:47:55.824Z,0
2017-12-31T01:48:57.759Z,0
2017-12-31T01:49:59.766Z,0
2017-12-31T01:51:01.727Z,0
2017-12-31T01:52:03.716Z,0
2017-12-31T01:53:05.634Z,0
2017-12-31T01:54:07.595Z,0
2017-12-31T01:55:09.550Z,0
2017-12-31T01:56:11.486Z,0
2017-12-31T01:57:13.427Z,0
2017-12-31T01:58:15.298Z,0
2017-12-31T01:59:17.278Z,0
2017-12-31T02:00:19.259Z,0
2017-12-31T02:01:21.188Z,0
2017-12-31T02:02:23.111Z,0
2017-12-31T02:03:25.056Z,0
2017-12-31T02:04:26.902Z,0
2017-12-31T02:05:28.833Z,0
2017-12-31T02:06:30.773Z,0
2017-12-31T02:07:32.693Z,0
2017-12-31T02:08:34.648Z,0
2017-12-31T02:09:36.621Z,0
2017-12-31T02:10:38.510Z,0
2017-12-31T02:11:40.519Z,0
2017-12-31T02:12:42.435Z,0
2017-12-31T02:13:44.311Z,0
2017-12-31T02:14:46.229Z,0
2017-12-31T02:15:48.191Z,0
2017-12-31T02:16:50.060Z,0
2017-12-31T02:17:51.994Z,0
2017-12-31T02:18:53.952Z,0
2017-12-31T02:19:55.895Z,0
2017-12-31T02:20:57.769Z,0
2017-12-31T02:21:59.680Z,0
2017-12-31T02:23:01.553Z,0
2017-12-31T02:24:03.487Z,0
2017-12-31T02:25:05.356Z,0
2017-12-31T02:26:07.276Z,0
2017-12-31T02:27:09.170Z,0
2017-12-31T02:28:11.096Z,0
2017-12-31T02:29:13.008Z,0
2017-12-31T02:30:14.911Z,0
2017-12-31T02:31:16.791Z,0
2017-12-31T02:32:18.704Z,0
2017-12-31T02:33:20.603Z,0
2017-12-31T02:34:22.505Z,0
2017-12-31T02:35:24.395Z,0
2017-12-31T02:36:26.325Z,0
2017-12-31T02:37:28.283Z,0
2017-12-31T02:38:30.146Z,0
2017-12-31T02:39:32.127Z,0
2017-12-31T02:40:34.125Z,0
2017-12-31T02:41:36.083Z,0
2017-12-31T02:42:37.961Z,0
2017-12-31T02:43:39.917Z,0
2017-12-31T02:44:41.809Z,0
2017-12-31T02:45:43.682Z,0
2017-12-31T02:46:45.674Z,0
2017-12-31T02:47:47.611Z,0
2017-12-31T02:48:49.568Z,0
2017-12-31T02:49:51.469Z,0
2017-12-31T02:50:53.340Z,0
2017-12-31T02:51:55.263Z,0
2017-12-31T02:52:57.152Z,0
2017-12-31T02:53:59.056Z,0
2017-12-31T02:55:01.059Z,0
2017-12-31T03:01:05.402Z,0
2017-12-31T03:02:07.187Z,0
2017-12-31T03:03:08.937Z,0
2017-12-31T03:04:10.879Z,0
2017-12-31T03:05:12.807Z,0
2017-12-31T03:06:14.748Z,0
2017-12-31T03:07:16.674Z,0
2017-12-31T03:08:18.608Z,0
2017-12-31T03:09:20.481Z,0
2017-12-31T03:10:22.387Z,0
2017-12-31T03:11:24.311Z,0
2017-12-31T03:12:26.217Z,0
2017-12-31T03:13:28.164Z,0
2017-12-31T03:14:30.034Z,0
2017-12-31T03:15:31.979Z,0
2017-12-31T03:16:33.952Z,0
2017-12-31T03:17:35.918Z,0
2017-12-31T03:18:37.825Z,0
2017-12-31T03:19:39.681Z,0
2017-12-31T03:20:41.608Z,0
2017-12-31T03:21:43.582Z,0
2017-12-31T03:22:45.521Z,0
2017-12-31T03:23:47.547Z,0
2017-12-31T03:24:49.487Z,0
2017-12-31T03:25:51.410Z,0
2017-12-31T03:26:53.431Z,0
2017-12-31T03:27:55.313Z,0
2017-12-31T03:28:57.262Z,0
2017-12-31T03:29:59.187Z,0
2017-12-31T03:31:01.087Z,0
2017-12-31T03:32:03.032Z,0
2017-12-31T03:33:05.055Z,0
2017-12-31T03:34:07.038Z,0
2017-12-31T03:35:09.296Z,0
2017-12-31T03:36:11.175Z,0
2017-12-31T03:37:13.142Z,0
2017-12-31T03:38:15.230Z,0
2017-12-31T03:39:17.282Z,0
2017-12-31T03:40:19.209Z,0
2017-12-31T03:41:21.144Z,0
2017-12-31T03:42:23.102Z,0
2017-12-31T03:43:25.023Z,0
2017-12-31T03:44:26.982Z,0
2017-12-31T03:45:29.014Z,0
2017-12-31T03:46:30.984Z,0
2017-12-31T03:47:32.971Z,0
2017-12-31T03:48:34.933Z,0
2017-12-31T03:49:36.950Z,0
2017-12-31T03:50:39.043Z,0
2017-12-31T03:51:40.998Z,0
2017-12-31T03:52:42.989Z,0
2017-12-31T03:53:44.896Z,0
2017-12-31T03:54:46.760Z,0
2017-12-31T03:55:48.703Z,0
2017-12-31T03:56:50.629Z,0
2017-12-31T03:57:52.609Z,0
2017-12-31T03:58:54.587Z,0
2017-12-31T03:59:56.611Z,0
2017-12-31T04:00:58.585Z,0
2017-12-31T04:02:00.587Z,0
2017-12-31T04:03:02.639Z,0
2017-12-31T04:04:04.622Z,0
2017-12-31T04:05:06.742Z,0
2017-12-31T04:06:08.770Z,0
2017-12-31T04:07:10.722Z,0
2017-12-31T04:08:12.733Z,0
2017-12-31T04:09:14.930Z,0
2017-12-31T04:10:16.957Z,0
2017-12-31T04:11:18.911Z,0
2017-12-31T04:12:21.160Z,0
2017-12-31T04:13:23.365Z,0
2017-12-31T04:14:25.412Z,0
2017-12-31T04:15:27.431Z,0
2017-12-31T04:16:29.506Z,0
2017-12-31T04:17:31.567Z,0
2017-12-31T04:18:33.589Z,0
2017-12-31T04:19:35.701Z,0
2017-12-31T04:20:37.833Z,0
2017-12-31T04:21:40.019Z,0
2017-12-31T04:22:42.171Z,0
2017-12-31T04:23:44.175Z,0
2017-12-31T04:24:46.259Z,0
2017-12-31T04:25:48.613Z,0
2017-12-31T04:26:50.555Z,0
2017-12-31T04:27:52.781Z,0
2017-12-31T04:28:55.252Z,0
2017-12-31T04:29:57.845Z,0
2017-12-31T04:30:59.950Z,0
2017-12-31T04:32:02.591Z,0
2017-12-31T04:33:04.648Z,0
2017-12-31T04:34:06.894Z,0
2017-12-31T04:35:09.660Z,0
2017-12-31T04:36:11.744Z,0
2017-12-31T04:37:14.052Z,0
2017-12-31T04:38:16.020Z,0
2017-12-31T04:39:18.380Z,0
2017-12-31T04:40:20.624Z,0
2017-12-31T04:41:22.756Z,0
2017-12-31T04:42:24.724Z,0
2017-12-31T04:43:26.754Z,0
2017-12-31T04:44:28.958Z,0
2017-12-31T04:45:30.974Z,0
2017-12-31T04:46:33.014Z,0
2017-12-31T04:47:35.610Z,0
2017-12-31T04:48:37.706Z,0
2017-12-31T04:49:39.903Z,0
2017-12-31T04:50:42.230Z,0
2017-12-31T04:51:44.604Z,0
2017-12-31T04:52:47.383Z,0
2017-12-31T04:53:50.139Z,0
2017-12-31T04:54:51.975Z,0
2017-12-31T04:55:53.900Z,0
2017-12-31T04:56:55.966Z,0
2017-12-31T04:57:58.053Z,0
2017-12-31T04:58:59.967Z,0
2017-12-31T05:00:01.967Z,0
2017-12-31T05:01:03.921Z,0
2017-12-31T05:02:06.030Z,0
2017-12-31T05:03:08.278Z,0
2017-12-31T05:04:10.367Z,0
2017-12-31T05:05:12.360Z,0
2017-12-31T05:06:14.303Z,0
2017-12-31T05:07:16.382Z,0
2017-12-31T05:08:18.651Z,0
2017-12-31T05:09:20.916Z,0
2017-12-31T05:10:23.086Z,0
2017-12-31T05:11:25.049Z,0
2017-12-31T05:12:27.464Z,0
2017-12-31T05:13:29.943Z,0
2017-12-31T05:14:32.077Z,0
2017-12-31T05:15:34.452Z,0
2017-12-31T05:16:36.598Z,0
2017-12-31T05:17:39.333Z,0
2017-12-31T05:18:41.638Z,0
2017-12-31T05:19:43.897Z,0
2017-12-31T05:20:46.149Z,0
2017-12-31T05:21:48.301Z,0
2017-12-31T05:22:50.642Z,0
2017-12-31T05:23:52.799Z,0
2017-12-31T05:24:55.339Z,0
2017-12-31T05:25:57.541Z,0
2017-12-31T05:26:59.633Z,0
2017-12-31T05:28:02.470Z,0
2017-12-31T05:29:05.155Z,0
2017-12-31T05:30:07.256Z,0
2017-12-31T05:31:09.844Z,0
2017-12-31T05:32:12.226Z,0
2017-12-31T05:33:14.361Z,0
2017-12-31T05:34:16.838Z,0
2017-12-31T05:35:18.825Z,0
2017-12-31T05:36:20.807Z,0
2017-12-31T05:37:22.772Z,0
2017-12-31T05:38:24.781Z,0
2017-12-31T05:39:26.762Z,0
2017-12-31T05:40:28.888Z,0
2017-12-31T05:41:30.897Z,0
2017-12-31T05:42:33.022Z,0
2017-12-31T05:43:35.044Z,0
2017-12-31T05:44:37.787Z,0
2017-12-31T05:45:39.824Z,0
2017-12-31T05:46:42.680Z,0
2017-12-31T05:47:44.623Z,0
2017-12-31T05:48:46.566Z,0
2017-12-31T05:49:48.620Z,0
2017-12-31T05:50:50.891Z,0
2017-12-31T05:51:52.882Z,0
2017-12-31T05:52:54.877Z,0
2017-12-31T05:53:57.283Z,0
2017-12-31T05:54:59.333Z,0
2017-12-31T05:56:01.620Z,0
2017-12-31T05:57:04.189Z,0
2017-12-31T05:58:06.503Z,0
2017-12-31T05:59:08.857Z,0
2017-12-31T06:00:10.887Z,0
2017-12-31T06:01:12.833Z,0
2017-12-31T06:02:14.803Z,0
2017-12-31T06:03:17.671Z,0
2017-12-31T06:04:19.622Z,0
2017-12-31T06:05:21.581Z,0
2017-12-31T06:06:23.456Z,0
2017-12-31T06:07:25.431Z,0
2017-12-31T06:08:27.357Z,0
2017-12-31T06:09:29.256Z,0
2017-12-31T06:10:31.196Z,0
2017-12-31T06:11:33.101Z,0
2017-12-31T06:12:35.038Z,0
2017-12-31T06:13:36.985Z,0
2017-12-31T06:14:38.923Z,0
2017-12-31T06:15:40.937Z,0
2017-12-31T06:16:43.205Z,0
2017-12-31T06:17:45.490Z,0
2017-12-31T06:18:47.426Z,0
2017-12-31T06:19:49.441Z,0
2017-12-31T06:20:51.457Z,0
2017-12-31T06:21:53.425Z,0
2017-12-31T06:22:55.631Z,0
2017-12-31T06:23:57.622Z,0
2017-12-31T06:24:59.555Z,0
2017-12-31T06:26:01.443Z,0
2017-12-31T06:27:03.321Z,0
2017-12-31T06:28:05.277Z,0
2017-12-31T06:29:07.279Z,0
2017-12-31T06:30:09.200Z,0
2017-12-31T06:31:11.086Z,0
2017-12-31T06:32:13.188Z,0
2017-12-31T06:33:15.060Z,0
2017-12-31T06:34:17.223Z,0
2017-12-31T06:35:19.125Z,0
2017-12-31T06:36:21.067Z,0
2017-12-31T06:37:23.025Z,0
2017-12-31T06:38:24.909Z,0
2017-12-31T06:39:26.916Z,0
2017-12-31T06:40:28.828Z,0
2017-12-31T06:41:30.770Z,0
2017-12-31T06:42:32.718Z,0
2017-12-31T06:43:34.659Z,0
2017-12-31T06:44:36.560Z,0
2017-12-31T06:45:38.516Z,0
2017-12-31T06:46:40.458Z,0
2017-12-31T06:47:42.321Z,0
2017-12-31T06:48:44.247Z,0
2017-12-31T06:49:46.166Z,0
2017-12-31T06:50:48.216Z,0
2017-12-31T06:51:50.125Z,0
2017-12-31T06:52:52.072Z,0
2017-12-31T06:53:53.997Z,0
2017-12-31T06:54:55.919Z,0
2017-12-31T06:55:57.880Z,0
2017-12-31T07:01:55.628Z,4
2017-12-31T07:02:57.370Z,4
2017-12-31T07:03:59.128Z,4
2017-12-31T07:05:01.031Z,4
2017-12-31T07:06:02.993Z,4
2017-12-31T07:07:05.015Z,4
2017-12-31T07:08:06.939Z,8
2017-12-31T07:09:08.868Z,8
2017-12-31T07:10:10.856Z,12
2017-12-31T07:11:12.768Z,12
2017-12-31T07:12:14.626Z,16
2017-12-31T07:13:16.595Z,20
2017-12-31T07:14:18.537Z,24
2017-12-31T07:15:20.536Z,28
2017-12-31T07:16:22.495Z,32
2017-12-31T07:17:24.483Z,36
2017-12-31T07:18:26.450Z,44
2017-12-31T07:19:28.385Z,52
2017-12-31T07:20:30.393Z,60
2017-12-31T07:21:32.318Z,68
2017-12-31T07:22:34.241Z,68
2017-12-31T07:23:36.132Z,100
2017-12-31T07:24:38.118Z,96
2017-12-31T07:25:40.091Z,88
2017-12-31T07:26:42.012Z,116
2017-12-31T07:27:43.920Z,116
2017-12-31T07:28:45.805Z,144
2017-12-31T07:29:47.750Z,124
2017-12-31T07:30:49.656Z,128
2017-12-31T07:31:51.576Z,140
2017-12-31T07:32:53.509Z,132
2017-12-31T07:33:55.505Z,132
2017-12-31T07:34:57.457Z,156
2017-12-31T07:35:59.346Z,172
2017-12-31T07:37:01.373Z,180
2017-12-31T07:38:03.356Z,188
2017-12-31T07:39:05.329Z,180
2017-12-31T07:40:07.305Z,196
2017-12-31T07:41:09.232Z,216
2017-12-31T07:42:11.186Z,204
2017-12-31T07:43:13.062Z,228
2017-12-31T07:44:14.954Z,216
2017-12-31T07:45:16.863Z,252
2017-12-31T07:46:18.811Z,228
2017-12-31T07:47:20.731Z,252
2017-12-31T07:48:22.666Z,280
2017-12-31T07:49:24.592Z,324
2017-12-31T07:50:26.587Z,400
2017-12-31T07:51:28.532Z,408
2017-12-31T07:52:30.554Z,568
2017-12-31T07:53:32.493Z,640
2017-12-31T07:54:34.535Z,648
2017-12-31T07:55:36.506Z,692
2017-12-31T07:56:38.400Z,948
2017-12-31T07:57:40.439Z,792
2017-12-31T07:58:42.317Z,980
2017-12-31T07:59:44.211Z,1048
2017-12-31T08:00:46.623Z,788
2017-12-31T08:01:48.928Z,716
2017-12-31T08:02:50.837Z,724
2017-12-31T08:03:52.787Z,720
2017-12-31T08:04:55.062Z,668
2017-12-31T08:05:57.045Z,772
2017-12-31T08:06:58.977Z,876
2017-12-31T08:08:00.981Z,752
2017-12-31T08:09:02.974Z,744
2017-12-31T08:10:04.942Z,736
2017-12-31T08:11:06.877Z,664
2017-12-31T08:12:08.891Z,764
2017-12-31T08:13:10.924Z,828
2017-12-31T08:14:12.862Z,816
2017-12-31T08:15:14.816Z,884
2017-12-31T08:16:16.786Z,900
2017-12-31T08:17:18.731Z,756
2017-12-31T08:18:20.696Z,964
2017-12-31T08:19:22.655Z,1024
2017-12-31T08:20:24.570Z,1108
2017-12-31T08:21:26.548Z,1236
2017-12-31T08:22:28.462Z,1096
2017-12-31T08:23:30.418Z,1108
2017-12-31T08:24:32.259Z,1108
2017-12-31T08:25:34.214Z,1104
2017-12-31T08:26:36.100Z,1204
2017-12-31T08:27:38.059Z,924
2017-12-31T08:28:40.054Z,904
2017-12-31T08:29:42.025Z,996
2017-12-31T08:30:43.941Z,1080
2017-12-31T08:31:45.902Z,996
2017-12-31T08:32:47.790Z,816
2017-12-31T08:33:49.764Z,932
2017-12-31T08:34:51.751Z,832
2017-12-31T08:35:53.730Z,800
2017-12-31T08:36:55.689Z,944
2017-12-31T08:37:57.633Z,880
2017-12-31T08:38:59.564Z,1088
2017-12-31T08:40:01.478Z,980
2017-12-31T08:41:03.301Z,1260
2017-12-31T08:42:05.153Z,1208
2017-12-31T08:43:07.028Z,1628
2017-12-31T08:44:09.108Z,1916
2017-12-31T08:45:11.163Z,1868
2017-12-31T08:46:13.102Z,1656
2017-12-31T08:47:15.068Z,2328
2017-12-31T08:48:16.974Z,2444
2017-12-31T08:49:18.981Z,2588
2017-12-31T08:50:20.883Z,3232
2017-12-31T08:51:22.815Z,3180
2017-12-31T08:52:24.732Z,3192
2017-12-31T08:53:26.619Z,2516
2017-12-31T08:54:28.546Z,2036
2017-12-31T08:55:30.462Z,1900
2017-12-31T08:56:32.293Z,1988
2017-12-31T08:57:34.145Z,2280
2017-12-31T08:58:35.896Z,2904
2017-12-31T08:59:37.736Z,3568
2017-12-31T09:00:39.498Z,4772
2017-12-31T09:01:41.292Z,4664
2017-12-31T09:02:43.189Z,4592
2017-12-31T09:03:44.991Z,3876
2017-12-31T09:04:46.819Z,3328
2017-12-31T09:05:48.727Z,4272
2017-12-31T09:06:50.593Z,4508
2017-12-31T09:07:52.526Z,4172
2017-12-31T09:08:54.525Z,4904
2017-12-31T09:09:56.437Z,4016
2017-12-31T09:10:58.406Z,4148
2017-12-31T09:12:00.216Z,4200
2017-12-31T09:13:02.136Z,4744
2017-12-31T09:14:04.739Z,4068
2017-12-31T09:15:05.958Z,4324
2017-12-31T09:16:07.845Z,4972
2017-12-31T09:17:09.765Z,4984
2017-12-31T09:18:11.590Z,4892
2017-12-31T09:19:13.514Z,4516
2017-12-31T09:20:15.376Z,5000
2017-12-31T09:21:17.185Z,5068
2017-12-31T09:22:19.019Z,4260
2017-12-31T09:23:21.017Z,3888
2017-12-31T09:24:22.958Z,3044
2017-12-31T09:25:24.841Z,2412
2017-12-31T09:26:27.418Z,2300
2017-12-31T09:27:29.279Z,2504
2017-12-31T09:28:32.711Z,3008
2017-12-31T09:29:34.547Z,3164
2017-12-31T09:30:36.323Z,2868
2017-12-31T09:31:38.161Z,2824
2017-12-31T09:32:40.023Z,2556
2017-12-31T09:33:41.908Z,3280
2017-12-31T09:34:44.355Z,3788
2017-12-31T09:35:46.294Z,3100
2017-12-31T09:36:48.188Z,2692
2017-12-31T09:37:50.220Z,2512
2017-12-31T09:38:52.326Z,2868
2017-12-31T09:39:55.122Z,3192
2017-12-31T09:40:58.254Z,3672
2017-12-31T09:41:59.924Z,3664
2017-12-31T09:43:01.823Z,3776
2017-12-31T09:44:03.719Z,3548
2017-12-31T09:45:05.500Z,3408
2017-12-31T09:46:07.435Z,2832
2017-12-31T09:47:09.249Z,3720
2017-12-31T09:48:11.079Z,3644
2017-12-31T09:49:12.996Z,3860
2017-12-31T09:50:15.609Z,3208
2017-12-31T09:51:17.509Z,2920
2017-12-31T09:52:19.701Z,3156
2017-12-31T09:53:21.731Z,3216
2017-12-31T09:54:23.666Z,3760
2017-12-31T09:55:25.680Z,4032
2017-12-31T09:56:27.804Z,2956
2017-12-31T09:57:29.789Z,2460
2017-12-31T09:58:31.721Z,2664
2017-12-31T09:59:33.649Z,2436
2017-12-31T10:00:35.665Z,3100
2017-12-31T10:01:37.681Z,3348
2017-12-31T10:02:39.728Z,2640
2017-12-31T10:03:41.744Z,2756
2017-12-31T10:04:44.388Z,3068
2017-12-31T10:05:46.387Z,4112
2017-12-31T10:06:48.318Z,5424
2017-12-31T10:07:50.281Z,5256
2017-12-31T10:08:52.800Z,6488
2017-12-31T10:09:54.725Z,5552
2017-12-31T10:10:56.706Z,5816
2017-12-31T10:11:58.656Z,6264
2017-12-31T10:13:00.558Z,6584
2017-12-31T10:14:02.501Z,6056
2017-12-31T10:15:04.448Z,6476
2017-12-31T10:16:06.406Z,6140
2017-12-31T10:17:08.406Z,5036
2017-12-31T10:18:11.099Z,4344
2017-12-31T10:19:12.984Z,4804
2017-12-31T10:20:17.703Z,4660
2017-12-31T10:21:20.314Z,3540
2017-12-31T10:22:22.273Z,3368
2017-12-31T10:23:24.268Z,3528
2017-12-31T10:24:26.223Z,4200
2017-12-31T10:25:28.194Z,4256
2017-12-31T10:26:30.100Z,5092
2017-12-31T10:27:32.200Z,7892
2017-12-31T10:28:34.583Z,6976
2017-12-31T10:29:37.146Z,5232
2017-12-31T10:30:39.013Z,5288
2017-12-31T10:31:41.163Z,4628
2017-12-31T10:32:43.098Z,5108
2017-12-31T10:33:45.277Z,4628
2017-12-31T10:34:47.848Z,5220
2017-12-31T10:35:49.727Z,4892
2017-12-31T10:36:51.673Z,3236
2017-12-31T10:37:53.551Z,2996
2017-12-31T10:38:55.448Z,3432
2017-12-31T10:39:57.517Z,3392
2017-12-31T10:40:59.284Z,2928
2017-12-31T10:42:01.188Z,2868
2017-12-31T10:43:03.108Z,2908
2017-12-31T10:44:05.518Z,2940
2017-12-31T10:45:07.405Z,3188
2017-12-31T10:46:09.513Z,3312
2017-12-31T10:47:11.330Z,3816
2017-12-31T10:48:13.332Z,3452
2017-12-31T10:49:15.480Z,3228
2017-12-31T10:50:17.479Z,3500
2017-12-31T10:51:25.400Z,4364
2017-12-31T10:52:27.174Z,4656
2017-12-31T10:53:29.503Z,4252
2017-12-31T10:54:33.569Z,3836
2017-12-31T10:55:35.367Z,3272
2017-12-31T11:01:32.699Z,3156
2017-12-31T11:02:34.521Z,2452
2017-12-31T11:03:36.581Z,2248
2017-12-31T11:04:38.627Z,2152
2017-12-31T11:05:42.110Z,2132
2017-12-31T11:06:43.890Z,2404
2017-12-31T11:07:45.688Z,2076
2017-12-31T11:08:47.622Z,2628
2017-12-31T11:09:49.605Z,2720
2017-12-31T11:10:52.853Z,2728
2017-12-31T11:11:54.620Z,2812
2017-12-31T11:12:56.453Z,2820
2017-12-31T11:13:58.283Z,3744
2017-12-31T11:15:00.296Z,3168
2017-12-31T11:16:04.145Z,3240
2017-12-31T11:17:06.094Z,3536
2017-12-31T11:18:08.036Z,4348
2017-12-31T11:19:10.240Z,4828
2017-12-31T11:20:15.717Z,3836
2017-12-31T11:21:17.892Z,3244
2017-12-31T11:22:20.127Z,3956
2017-12-31T11:23:24.459Z,3680
2017-12-31T11:24:26.574Z,3668
2017-12-31T11:25:28.794Z,2576
2017-12-31T11:26:30.719Z,2228
2017-12-31T11:27:36.242Z,2356
2017-12-31T11:28:38.145Z,2472
2017-12-31T11:29:40.243Z,2300
2017-12-31T11:30:44.252Z,2512
2017-12-31T11:31:46.205Z,3300
2017-12-31T11:32:49.159Z,3536
2017-12-31T11:33:52.845Z,3704
2017-12-31T11:34:55.066Z,2900
2017-12-31T11:35:57.242Z,2040
2017-12-31T11:36:59.951Z,1872
2017-12-31T11:38:04.173Z,1764
2017-12-31T11:39:07.766Z,1520
2017-12-31T11:40:10.576Z,1872
2017-12-31T11:41:14.173Z,2252
2017-12-31T11:42:16.159Z,2084
2017-12-31T11:43:18.216Z,2572
2017-12-31T11:44:23.506Z,3300
2017-12-31T11:45:25.497Z,2744
2017-12-31T11:46:27.516Z,3048
2017-12-31T11:47:29.936Z,3764
2017-12-31T11:48:34.452Z,4592
2017-12-31T11:49:36.662Z,3548
2017-12-31T11:50:38.618Z,2572
2017-12-31T11:51:41.689Z,2208
2017-12-31T11:52:44.165Z,2140
2017-12-31T11:53:46.169Z,2360
2017-12-31T11:54:48.165Z,2668
2017-12-31T11:55:50.357Z,2336
2017-12-31T11:56:54.234Z,2192
2017-12-31T11:57:56.187Z,2392
2017-12-31T11:58:58.206Z,2660
2017-12-31T12:00:00.314Z,2736
2017-12-31T12:01:05.385Z,2492
2017-12-31T12:02:07.301Z,2040
2017-12-31T12:03:09.281Z,2448
2017-12-31T12:04:11.402Z,2684
2017-12-31T12:05:13.356Z,2968
2017-12-31T12:06:15.319Z,2956
2017-12-31T12:07:17.273Z,2640
2017-12-31T12:08:21.086Z,2616
2017-12-31T12:09:23.164Z,2584
2017-12-31T12:10:25.119Z,2680
2017-12-31T12:11:26.921Z,2460
2017-12-31T12:12:30.366Z,2936
2017-12-31T12:13:34.701Z,3104
2017-12-31T12:14:41.264Z,3628
2017-12-31T12:15:43.895Z,4928
2017-12-31T12:16:48.342Z,4024
2017-12-31T12:17:50.344Z,4148
2017-12-31T12:18:52.594Z,2804
2017-12-31T12:19:55.321Z,2476
2017-12-31T12:20:58.261Z,2752
2017-12-31T12:22:00.243Z,2164
2017-12-31T12:23:02.370Z,2668
2017-12-31T12:24:04.790Z,3560
2017-12-31T12:25:09.094Z,3296
2017-12-31T12:26:11.178Z,3236
2017-12-31T12:27:13.196Z,4268
2017-12-31T12:28:18.066Z,4004
2017-12-31T12:29:20.147Z,3456
2017-12-31T12:30:22.450Z,3772
2017-12-31T12:31:30.373Z,3576
2017-12-31T12:32:32.498Z,4780
2017-12-31T12:33:49.209Z,5280
2017-12-31T12:34:51.181Z,4880
2017-12-31T12:35:53.376Z,4236
2017-12-31T12:36:57.318Z,5192
2017-12-31T12:38:00.038Z,3616
2017-12-31T12:39:02.503Z,3296
2017-12-31T12:40:05.005Z,4212
2017-12-31T12:41:07.881Z,4300
2017-12-31T12:42:16.630Z,4976
2017-12-31T12:43:18.466Z,6940
2017-12-31T12:44:21.218Z,7004
2017-12-31T12:45:24.250Z,5808
2017-12-31T12:46:27.005Z,4064
2017-12-31T12:47:29.896Z,3892
2017-12-31T12:48:32.367Z,4148
2017-12-31T12:49:35.060Z,5340
2017-12-31T12:50:37.904Z,4776
2017-12-31T12:51:40.556Z,4416
2017-12-31T12:52:43.083Z,3644
2017-12-31T12:53:45.778Z,4052
2017-12-31T12:54:48.460Z,3984
2017-12-31T12:55:51.081Z,4528
2017-12-31T12:56:53.596Z,4464
2017-12-31T12:57:56.293Z,5484
2017-12-31T12:58:59.101Z,4948
2017-12-31T13:00:01.980Z,3984
2017-12-31T13:01:04.772Z,4788
2017-12-31T13:02:07.434Z,7668
2017-12-31T13:03:10.281Z,7300
2017-12-31T13:04:12.931Z,5728
2017-12-31T13:05:15.066Z,5160
2017-12-31T13:06:17.563Z,5248
2017-12-31T13:07:19.601Z,5328
2017-12-31T13:08:21.839Z,6480
2017-12-31T13:09:23.898Z,6340
2017-12-31T13:10:26.053Z,5716
2017-12-31T13:11:28.121Z,6484
2017-12-31T13:12:30.121Z,8388
2017-12-31T13:13:32.653Z,11472
2017-12-31T13:14:34.879Z,8212
2017-12-31T13:15:36.992Z,5832
2017-12-31T13:16:39.000Z,5248
2017-12-31T13:17:40.957Z,6028
2017-12-31T13:18:42.950Z,6660
2017-12-31T13:19:44.960Z,7072
2017-12-31T13:20:46.889Z,7920
2017-12-31T13:21:48.869Z,6764
2017-12-31T13:22:50.876Z,7264
2017-12-31T13:23:52.861Z,7396
2017-12-31T13:24:55.053Z,8816
2017-12-31T13:25:57.063Z,8520
2017-12-31T13:26:59.114Z,8308
2017-12-31T13:28:01.313Z,6616
2017-12-31T13:29:03.265Z,5400
2017-12-31T13:30:05.583Z,6272
2017-12-31T13:31:08.095Z,5536
2017-12-31T13:32:12.245Z,4644
2017-12-31T13:33:14.482Z,4076
2017-12-31T13:34:16.636Z,3764
2017-12-31T13:35:19.755Z,4340
2017-12-31T13:36:22.388Z,3788
2017-12-31T13:37:24.239Z,3924
2017-12-31T13:38:26.071Z,5860
2017-12-31T13:39:28.769Z,5408
2017-12-31T13:40:32.727Z,4072
2017-12-31T13:41:35.064Z,3836
2017-12-31T13:42:37.111Z,3796
2017-12-31T13:43:39.266Z,4176
2017-12-31T13:44:42.777Z,4136
2017-12-31T13:45:44.855Z,3984
2017-12-31T13:46:47.107Z,3084
2017-12-31T13:47:49.302Z,3156
2017-12-31T13:48:51.848Z,3392
2017-12-31T13:49:54.235Z,2324
2017-12-31T13:50:56.117Z,3148
2017-12-31T13:51:58.577Z,4136
2017-12-31T13:53:03.128Z,5748
2017-12-31T13:54:06.895Z,6808
2017-12-31T13:55:08.932Z,6084
2017-12-31T13:56:10.861Z,5844
2017-12-31T13:57:13.810Z,4016
2017-12-31T13:58:16.635Z,4004
2017-12-31T13:59:18.619Z,3924
2017-12-31T14:00:20.572Z,3900
2017-12-31T14:01:22.493Z,3988
2017-12-31T14:02:24.465Z,2856
2017-12-31T14:03:26.407Z,2480
2017-12-31T14:04:28.228Z,4028
2017-12-31T14:05:31.421Z,4020
2017-12-31T14:06:33.247Z,4460
2017-12-31T14:07:35.121Z,4752
2017-12-31T14:08:36.971Z,4712
2017-12-31T14:09:38.870Z,5664
2017-12-31T14:10:40.806Z,5240
2017-12-31T14:11:43.090Z,4196
2017-12-31T14:12:45.695Z,3808
2017-12-31T14:13:47.653Z,3296
2017-12-31T14:14:49.966Z,3176
2017-12-31T14:15:52.462Z,3312
2017-12-31T14:16:57.644Z,3436
2017-12-31T14:17:59.611Z,4008
2017-12-31T14:19:01.680Z,4200
2017-12-31T14:20:06.312Z,3608
2017-12-31T14:21:08.408Z,3372
2017-12-31T14:22:10.505Z,3600
2017-12-31T14:23:12.623Z,3060
2017-12-31T14:24:16.272Z,3144
2017-12-31T14:25:18.103Z,3200
2017-12-31T14:26:19.998Z,3280
2017-12-31T14:27:21.968Z,3060
2017-12-31T14:28:24.052Z,3036
2017-12-31T14:29:27.591Z,2472
2017-12-31T14:30:29.517Z,2512
2017-12-31T14:31:31.463Z,1656
2017-12-31T14:32:33.536Z,1508
2017-12-31T14:33:37.020Z,1864
2017-12-31T14:34:39.215Z,2088
2017-12-31T14:35:41.107Z,1864
2017-12-31T14:36:43.309Z,1432
2017-12-31T14:37:46.680Z,1184
2017-12-31T14:38:48.849Z,1088
2017-12-31T14:39:50.773Z,1140
2017-12-31T14:40:53.487Z,1004
2017-12-31T14:41:58.581Z,956
2017-12-31T14:43:02.326Z,1044
2017-12-31T14:44:04.431Z,1388
2017-12-31T14:45:06.303Z,1212
2017-12-31T14:46:08.274Z,1248
2017-12-31T14:47:11.512Z,1124
2017-12-31T14:48:13.438Z,976